sensor_id;sensor_type;location;lat;lon;timestamp;pressure;altitude;pressure_sealevel;temperature;humidity
71966;BME280;59836;52.132;5.442;2023-01-31T00:02:00;102522.06;;;2.99;87.90
71966;BME280;59836;52.132;5.442;2023-01-31T00:04:30;102517.06;;;2.95;88.43
71966;BME280;59836;52.132;5.442;2023-01-31T00:06:59;102508.19;;;2.95;88.23
71966;BME280;59836;52.132;5.442;2023-01-31T00:09:30;102509.56;;;2.91;88.15
71966;BME280;59836;52.132;5.442;2023-01-31T00:11:57;102505.38;;;2.88;88.49
71966;BME280;59836;52.132;5.442;2023-01-31T00:14:23;102513.59;;;2.87;88.41
71966;BME280;59836;52.132;5.442;2023-01-31T00:16:57;102511.94;;;2.86;88.29
71966;BME280;59836;52.132;5.442;2023-01-31T00:19:31;102504.06;;;2.84;88.51
71966;BME280;59836;52.132;5.442;2023-01-31T00:21:57;102506.06;;;2.82;88.04
71966;BME280;59836;52.132;5.442;2023-01-31T00:24:24;102499.38;;;2.78;88.28
71966;BME280;59836;52.132;5.442;2023-01-31T00:26:50;102488.69;;;2.78;88.21
71966;BME280;59836;52.132;5.442;2023-01-31T00:29:22;102491.34;;;2.78;88.34
71966;BME280;59836;52.132;5.442;2023-01-31T00:31:50;102477.13;;;2.77;88.14
71966;BME280;59836;52.132;5.442;2023-01-31T00:34:16;102484.31;;;2.77;88.53
71966;BME280;59836;52.132;5.442;2023-01-31T00:36:43;102470.56;;;2.80;88.19
71966;BME280;59836;52.132;5.442;2023-01-31T00:39:10;102459.84;;;2.80;88.42
71966;BME280;59836;52.132;5.442;2023-01-31T00:41:41;102464.41;;;2.79;88.29
71966;BME280;59836;52.132;5.442;2023-01-31T00:44:08;102459.84;;;2.80;88.68
71966;BME280;59836;52.132;5.442;2023-01-31T00:46:37;102461.19;;;2.84;88.50
71966;BME280;59836;52.132;5.442;2023-01-31T00:49:04;102457.47;;;2.85;88.54
71966;BME280;59836;52.132;5.442;2023-01-31T00:51:30;102451.31;;;2.85;88.59
71966;BME280;59836;52.132;5.442;2023-01-31T00:53:57;102461.19;;;2.84;88.19
71966;BME280;59836;52.132;5.442;2023-01-31T00:56:25;102464.88;;;2.83;87.93
71966;BME280;59836;52.132;5.442;2023-01-31T00:59:07;102449.16;;;2.80;88.28
71966;BME280;59836;52.132;5.442;2023-01-31T01:01:46;102441.31;;;2.78;88.00
71966;BME280;59836;52.132;5.442;2023-01-31T01:04:14;102446.81;;;2.77;87.91
71966;BME280;59836;52.132;5.442;2023-01-31T01:06:41;102454.03;;;2.76;88.14
71966;BME280;59836;52.132;5.442;2023-01-31T01:09:07;102449.03;;;2.73;88.03
71966;BME280;59836;52.132;5.442;2023-01-31T01:11:36;102455.41;;;2.72;88.47
71966;BME280;59836;52.132;5.442;2023-01-31T01:14:02;102450.19;;;2.71;88.44
71966;BME280;59836;52.132;5.442;2023-01-31T01:16:54;102452.06;;;2.70;88.24
71966;BME280;59836;52.132;5.442;2023-01-31T01:19:24;102439.69;;;2.69;88.24
71966;BME280;59836;52.132;5.442;2023-01-31T01:21:53;102434.13;;;2.71;88.82
71966;BME280;59836;52.132;5.442;2023-01-31T01:24:20;102436.66;;;2.72;88.80
71966;BME280;59836;52.132;5.442;2023-01-31T01:26:48;102435.78;;;2.72;88.37
71966;BME280;59836;52.132;5.442;2023-01-31T01:29:15;102441.16;;;2.72;88.89
71966;BME280;59836;52.132;5.442;2023-01-31T01:31:42;102433.13;;;2.72;88.77
71966;BME280;59836;52.132;5.442;2023-01-31T01:34:13;102438.66;;;2.70;88.64
71966;BME280;59836;52.132;5.442;2023-01-31T01:36:43;102435.13;;;2.70;88.76
71966;BME280;59836;52.132;5.442;2023-01-31T01:39:18;102437.00;;;2.69;88.42
71966;BME280;59836;52.132;5.442;2023-01-31T01:41:45;102442.16;;;2.71;88.54
71966;BME280;59836;52.132;5.442;2023-01-31T01:44:49;102432.09;;;2.73;88.74
71966;BME280;59836;52.132;5.442;2023-01-31T01:47:25;102442.47;;;2.76;88.87
71966;BME280;59836;52.132;5.442;2023-01-31T01:49:59;102451.16;;;2.78;88.83
71966;BME280;59836;52.132;5.442;2023-01-31T01:52:28;102440.44;;;2.78;88.67
71966;BME280;59836;52.132;5.442;2023-01-31T01:55:33;102445.81;;;2.78;88.90
71966;BME280;59836;52.132;5.442;2023-01-31T01:58:30;102442.97;;;2.79;88.98
71966;BME280;59836;52.132;5.442;2023-01-31T02:00:57;102448.78;;;2.83;89.42
71966;BME280;59836;52.132;5.442;2023-01-31T02:03:25;102448.44;;;2.86;89.50
71966;BME280;59836;52.132;5.442;2023-01-31T02:05:58;102441.91;;;2.89;89.22
71966;BME280;59836;52.132;5.442;2023-01-31T02:08:38;102446.06;;;2.91;89.51
71966;BME280;59836;52.132;5.442;2023-01-31T02:11:23;102446.72;;;2.93;89.51
71966;BME280;59836;52.132;5.442;2023-01-31T02:13:56;102445.19;;;2.99;89.56
71966;BME280;59836;52.132;5.442;2023-01-31T02:16:43;102445.28;;;3.06;89.77
71966;BME280;59836;52.132;5.442;2023-01-31T02:22:11;102445.88;;;3.16;89.67
71966;BME280;59836;52.132;5.442;2023-01-31T02:24:51;102453.56;;;3.19;89.70
71966;BME280;59836;52.132;5.442;2023-01-31T02:27:47;102442.84;;;3.19;89.50
71966;BME280;59836;52.132;5.442;2023-01-31T02:30:51;102446.16;;;3.21;90.18
71966;BME280;59836;52.132;5.442;2023-01-31T02:33:22;102444.78;;;3.25;90.14
71966;BME280;59836;52.132;5.442;2023-01-31T02:39:30;102427.63;;;3.35;90.02
71966;BME280;59836;52.132;5.442;2023-01-31T02:42:27;102423.72;;;3.37;90.17
71966;BME280;59836;52.132;5.442;2023-01-31T02:45:03;102414.66;;;3.38;89.97
71966;BME280;59836;52.132;5.442;2023-01-31T02:47:42;102408.78;;;3.43;90.24
71966;BME280;59836;52.132;5.442;2023-01-31T02:53:30;102413.56;;;3.48;90.30
71966;BME280;59836;52.132;5.442;2023-01-31T02:56:09;102410.72;;;3.49;90.54
71966;BME280;59836;52.132;5.442;2023-01-31T02:58:52;102403.34;;;3.51;90.45
71966;BME280;59836;52.132;5.442;2023-01-31T03:01:23;102409.34;;;3.53;90.81
71966;BME280;59836;52.132;5.442;2023-01-31T03:03:58;102414.34;;;3.57;90.76
71966;BME280;59836;52.132;5.442;2023-01-31T03:09:10;102408.91;;;3.65;90.44
71966;BME280;59836;52.132;5.442;2023-01-31T03:11:54;102405.84;;;3.68;91.12
71966;BME280;59836;52.132;5.442;2023-01-31T03:14:41;102399.25;;;3.71;90.58
71966;BME280;59836;52.132;5.442;2023-01-31T03:20:57;102388.81;;;3.76;91.04
71966;BME280;59836;52.132;5.442;2023-01-31T03:23:27;102387.59;;;3.78;90.78
71966;BME280;59836;52.132;5.442;2023-01-31T03:25:57;102385.75;;;3.79;90.93
71966;BME280;59836;52.132;5.442;2023-01-31T03:28:34;102385.56;;;3.80;91.42
71966;BME280;59836;52.132;5.442;2023-01-31T03:31:20;102383.50;;;3.82;91.38
71966;BME280;59836;52.132;5.442;2023-01-31T03:33:54;102362.03;;;3.82;91.20
71966;BME280;59836;52.132;5.442;2023-01-31T03:39:36;102362.53;;;3.86;91.37
71966;BME280;59836;52.132;5.442;2023-01-31T03:42:18;102360.28;;;3.90;91.79
71966;BME280;59836;52.132;5.442;2023-01-31T03:44:55;102359.75;;;3.94;91.75
71966;BME280;59836;52.132;5.442;2023-01-31T03:47:43;102352.50;;;3.95;91.86
71966;BME280;59836;52.132;5.442;2023-01-31T03:50:24;102354.81;;;3.98;92.16
71966;BME280;59836;52.132;5.442;2023-01-31T03:53:01;102360.81;;;4.00;92.00
71966;BME280;59836;52.132;5.442;2023-01-31T03:58:25;102353.88;;;4.06;92.85
71966;BME280;59836;52.132;5.442;2023-01-31T04:00:55;102363.22;;;4.10;92.51
71966;BME280;59836;52.132;5.442;2023-01-31T04:03:30;102354.59;;;4.14;92.82
71966;BME280;59836;52.132;5.442;2023-01-31T04:06:00;102355.25;;;4.17;92.70
71966;BME280;59836;52.132;5.442;2023-01-31T04:08:33;102341.44;;;4.20;92.60
71966;BME280;59836;52.132;5.442;2023-01-31T04:11:03;102349.13;;;4.23;92.89
71966;BME280;59836;52.132;5.442;2023-01-31T04:13:30;102342.72;;;4.24;92.32
71966;BME280;59836;52.132;5.442;2023-01-31T04:15:57;102335.31;;;4.26;92.82
71966;BME280;59836;52.132;5.442;2023-01-31T04:18:27;102329.94;;;4.26;92.53
71966;BME280;59836;52.132;5.442;2023-01-31T04:20:53;102335.31;;;4.26;92.23
71966;BME280;59836;52.132;5.442;2023-01-31T04:23:20;102326.63;;;4.24;92.33
71966;BME280;59836;52.132;5.442;2023-01-31T04:25:47;102328.00;;;4.20;92.13
71966;BME280;59836;52.132;5.442;2023-01-31T04:28:15;102334.41;;;4.19;92.30
71966;BME280;59836;52.132;5.442;2023-01-31T04:30:41;102320.97;;;4.19;92.73
71966;BME280;59836;52.132;5.442;2023-01-31T04:33:08;102329.03;;;4.19;92.68
71966;BME280;59836;52.132;5.442;2023-01-31T04:35:34;102324.69;;;4.18;92.86
71966;BME280;59836;52.132;5.442;2023-01-31T04:38:01;102323.66;;;4.19;92.74
71966;BME280;59836;52.132;5.442;2023-01-31T04:40:28;102321.63;;;4.21;92.75
71966;BME280;59836;52.132;5.442;2023-01-31T04:42:55;102323.28;;;4.22;93.09
71966;BME280;59836;52.132;5.442;2023-01-31T04:45:34;102325.97;;;4.22;92.87
71966;BME280;59836;52.132;5.442;2023-01-31T04:48:02;102316.69;;;4.24;93.15
71966;BME280;59836;52.132;5.442;2023-01-31T04:50:32;102308.25;;;4.27;92.93
71966;BME280;59836;52.132;5.442;2023-01-31T04:53:02;102294.00;;;4.27;92.64
71966;BME280;59836;52.132;5.442;2023-01-31T04:55:29;102287.78;;;4.26;93.46
71966;BME280;59836;52.132;5.442;2023-01-31T04:57:56;102303.72;;;4.28;92.79
71966;BME280;59836;52.132;5.442;2023-01-31T05:00:23;102294.44;;;4.31;92.87
71966;BME280;59836;52.132;5.442;2023-01-31T05:02:51;102292.59;;;4.31;92.73
71966;BME280;59836;52.132;5.442;2023-01-31T05:05:19;102288.69;;;4.34;93.29
71966;BME280;59836;52.132;5.442;2023-01-31T05:07:46;102288.88;;;4.32;93.13
71966;BME280;59836;52.132;5.442;2023-01-31T05:10:12;102280.84;;;4.32;93.36
71966;BME280;59836;52.132;5.442;2023-01-31T05:12:39;102279.59;;;4.35;93.75
71966;BME280;59836;52.132;5.442;2023-01-31T05:15:05;102292.22;;;4.34;93.11
71966;BME280;59836;52.132;5.442;2023-01-31T05:17:37;102290.97;;;4.37;92.98
71966;BME280;59836;52.132;5.442;2023-01-31T05:20:04;102281.09;;;4.37;93.41
71966;BME280;59836;52.132;5.442;2023-01-31T05:22:35;102281.72;;;4.39;93.41
71966;BME280;59836;52.132;5.442;2023-01-31T05:25:06;102281.72;;;4.39;93.24
71966;BME280;59836;52.132;5.442;2023-01-31T05:27:35;102285.06;;;4.41;93.99
71966;BME280;59836;52.132;5.442;2023-01-31T05:30:01;102277.81;;;4.42;93.26
71966;BME280;59836;52.132;5.442;2023-01-31T05:32:38;102280.97;;;4.46;93.61
71966;BME280;59836;52.132;5.442;2023-01-31T05:35:06;102267.53;;;4.46;93.29
71966;BME280;59836;52.132;5.442;2023-01-31T05:37:33;102272.91;;;4.46;93.56
71966;BME280;59836;52.132;5.442;2023-01-31T05:39:59;102276.88;;;4.50;93.63
71966;BME280;59836;52.132;5.442;2023-01-31T05:42:32;102278.53;;;4.51;93.39
71966;BME280;59836;52.132;5.442;2023-01-31T05:45:02;102260.75;;;4.50;93.26
71966;BME280;59836;52.132;5.442;2023-01-31T05:47:29;102266.75;;;4.52;93.59
71966;BME280;59836;52.132;5.442;2023-01-31T05:49:55;102267.41;;;4.54;93.68
71966;BME280;59836;52.132;5.442;2023-01-31T05:52:26;102274.44;;;4.55;93.68
71966;BME280;59836;52.132;5.442;2023-01-31T05:54:52;102275.47;;;4.54;93.58
71966;BME280;59836;52.132;5.442;2023-01-31T05:57:26;102263.69;;;4.55;93.36
71966;BME280;59836;52.132;5.442;2023-01-31T05:59:52;102259.75;;;4.57;93.49
71966;BME280;59836;52.132;5.442;2023-01-31T06:02:21;102254.59;;;4.56;93.65
71966;BME280;59836;52.132;5.442;2023-01-31T06:04:53;102248.19;;;4.57;93.58
71966;BME280;59836;52.132;5.442;2023-01-31T06:07:24;102243.47;;;4.59;93.46
71966;BME280;59836;52.132;5.442;2023-01-31T06:09:50;102246.16;;;4.59;93.90
71966;BME280;59836;52.132;5.442;2023-01-31T06:12:22;102239.94;;;4.58;93.94
71966;BME280;59836;52.132;5.442;2023-01-31T06:14:48;102245.13;;;4.60;93.83
71966;BME280;59836;52.132;5.442;2023-01-31T06:17:15;102245.94;;;4.61;93.63
71966;BME280;59836;52.132;5.442;2023-01-31T06:19:46;102226.09;;;4.62;93.63
71966;BME280;59836;52.132;5.442;2023-01-31T06:22:13;102223.25;;;4.63;93.99
71966;BME280;59836;52.132;5.442;2023-01-31T06:24:44;102228.63;;;4.63;94.10
71966;BME280;59836;52.132;5.442;2023-01-31T06:27:19;102229.25;;;4.65;94.48
71966;BME280;59836;52.132;5.442;2023-01-31T06:30:04;102215.81;;;4.65;94.36
71966;BME280;59836;52.132;5.442;2023-01-31T06:32:31;102218.28;;;4.67;94.33
71966;BME280;59836;52.132;5.442;2023-01-31T06:35:02;102233.22;;;4.69;94.59
71966;BME280;59836;52.132;5.442;2023-01-31T06:37:58;102228.00;;;4.68;94.51
71966;BME280;59836;52.132;5.442;2023-01-31T06:40:25;102218.28;;;4.67;94.24
71966;BME280;59836;52.132;5.442;2023-01-31T06:42:53;102217.47;;;4.66;94.43
71966;BME280;59836;52.132;5.442;2023-01-31T06:45:20;102213.75;;;4.67;94.42
71966;BME280;59836;52.132;5.442;2023-01-31T06:47:47;102211.06;;;4.67;94.12
71966;BME280;59836;52.132;5.442;2023-01-31T06:50:14;102215.41;;;4.68;94.54
71966;BME280;59836;52.132;5.442;2023-01-31T06:52:41;102206.34;;;4.69;94.29
71966;BME280;59836;52.132;5.442;2023-01-31T06:55:09;102206.34;;;4.69;94.17
71966;BME280;59836;52.132;5.442;2023-01-31T06:57:45;102216.69;;;4.72;94.14
71966;BME280;59836;52.132;5.442;2023-01-31T07:00:12;102211.31;;;4.72;94.05
71966;BME280;59836;52.132;5.442;2023-01-31T07:02:38;102205.56;;;4.76;94.41
71966;BME280;59836;52.132;5.442;2023-01-31T07:05:05;102197.50;;;4.76;94.18
71966;BME280;59836;52.132;5.442;2023-01-31T07:07:32;102204.53;;;4.77;94.21
71966;BME280;59836;52.132;5.442;2023-01-31T07:10:00;102190.25;;;4.76;93.63
71966;BME280;59836;52.132;5.442;2023-01-31T07:12:27;102185.50;;;4.78;94.09
71966;BME280;59836;52.132;5.442;2023-01-31T07:14:53;102175.78;;;4.77;93.85
71966;BME280;59836;52.132;5.442;2023-01-31T07:17:20;102180.13;;;4.78;93.96
71966;BME280;59836;52.132;5.442;2023-01-31T07:19:46;102175.38;;;4.80;94.03
71966;BME280;59836;52.132;5.442;2023-01-31T07:22:13;102173.50;;;4.81;93.81
71966;BME280;59836;52.132;5.442;2023-01-31T07:24:39;102179.50;;;4.83;93.73
71966;BME280;59836;52.132;5.442;2023-01-31T07:27:06;102176.66;;;4.84;93.39
71966;BME280;59836;52.132;5.442;2023-01-31T07:29:32;102174.78;;;4.85;93.90
71966;BME280;59836;52.132;5.442;2023-01-31T07:31:58;102174.13;;;4.83;93.88
71966;BME280;59836;52.132;5.442;2023-01-31T07:34:25;102173.13;;;4.84;93.49
71966;BME280;59836;52.132;5.442;2023-01-31T07:36:51;102169.22;;;4.86;93.17
71966;BME280;59836;52.132;5.442;2023-01-31T07:39:18;102172.31;;;4.90;93.97
71966;BME280;59836;52.132;5.442;2023-01-31T07:41:45;102166.94;;;4.90;93.77
71966;BME280;59836;52.132;5.442;2023-01-31T07:44:11;102177.50;;;4.92;93.30
71966;BME280;59836;52.132;5.442;2023-01-31T07:46:41;102187.03;;;4.94;93.50
71966;BME280;59836;52.132;5.442;2023-01-31T07:49:11;102184.16;;;4.96;93.90
71966;BME280;59836;52.132;5.442;2023-01-31T07:51:38;102174.22;;;4.96;93.56
71966;BME280;59836;52.132;5.442;2023-01-31T07:54:05;102177.53;;;4.98;93.63
71966;BME280;59836;52.132;5.442;2023-01-31T07:56:32;102164.72;;;5.00;93.67
71966;BME280;59836;52.132;5.442;2023-01-31T07:58:59;102159.97;;;5.02;93.33
71966;BME280;59836;52.132;5.442;2023-01-31T08:01:26;102166.84;;;5.05;93.45
71966;BME280;59836;52.132;5.442;2023-01-31T08:04:16;102156.06;;;5.05;93.75
71966;BME280;59836;52.132;5.442;2023-01-31T08:06:55;102140.56;;;5.07;93.39
71966;BME280;59836;52.132;5.442;2023-01-31T08:09:22;102144.94;;;5.08;93.48
71966;BME280;59836;52.132;5.442;2023-01-31T08:11:50;102147.41;;;5.10;93.46
71966;BME280;59836;52.132;5.442;2023-01-31T08:14:17;102150.31;;;5.08;93.85
71966;BME280;59836;52.132;5.442;2023-01-31T08:16:53;102139.31;;;5.10;93.72
71966;BME280;59836;52.132;5.442;2023-01-31T08:19:22;102138.50;;;5.09;93.69
71966;BME280;59836;52.132;5.442;2023-01-31T08:21:49;102132.28;;;5.09;93.04
71966;BME280;59836;52.132;5.442;2023-01-31T08:24:18;102124.22;;;5.09;93.97
71966;BME280;59836;52.132;5.442;2023-01-31T08:26:45;102124.22;;;5.09;93.77
71966;BME280;59836;52.132;5.442;2023-01-31T08:29:12;102123.00;;;5.11;93.21
71966;BME280;59836;52.132;5.442;2023-01-31T08:31:39;102116.59;;;5.12;93.18
71966;BME280;59836;52.132;5.442;2023-01-31T08:34:06;102110.19;;;5.13;93.58
71966;BME280;59836;52.132;5.442;2023-01-31T08:36:33;102116.38;;;5.14;93.82
71966;BME280;59836;52.132;5.442;2023-01-31T08:39:01;102105.22;;;5.17;93.56
71966;BME280;59836;52.132;5.442;2023-01-31T08:41:29;102111.84;;;5.21;93.26
71966;BME280;59836;52.132;5.442;2023-01-31T08:43:56;102117.69;;;5.25;93.11
71966;BME280;59836;52.132;5.442;2023-01-31T08:46:26;102121.19;;;5.25;93.40
71966;BME280;59836;52.132;5.442;2023-01-31T08:48:53;102118.09;;;5.28;93.33
71966;BME280;59836;52.132;5.442;2023-01-31T08:51:22;102117.69;;;5.31;93.29
71966;BME280;59836;52.132;5.442;2023-01-31T08:53:48;102115.63;;;5.34;93.53
71966;BME280;59836;52.132;5.442;2023-01-31T08:56:15;102118.94;;;5.36;93.10
71966;BME280;59836;52.132;5.442;2023-01-31T08:58:43;102122.25;;;5.38;92.84
71966;BME280;59836;52.132;5.442;2023-01-31T09:01:12;102115.84;;;5.39;92.81
71966;BME280;59836;52.132;5.442;2023-01-31T09:03:40;102113.16;;;5.39;93.32
71966;BME280;59836;52.132;5.442;2023-01-31T09:06:13;102125.56;;;5.40;93.12
71966;BME280;59836;52.132;5.442;2023-01-31T09:08:40;102121.44;;;5.44;92.94
71966;BME280;59836;52.132;5.442;2023-01-31T09:11:06;102114.19;;;5.44;93.13
71966;BME280;59836;52.132;5.442;2023-01-31T09:13:34;102107.78;;;5.45;93.05
71966;BME280;59836;52.132;5.442;2023-01-31T09:16:03;102110.28;;;5.47;93.33
71966;BME280;59836;52.132;5.442;2023-01-31T09:18:32;102107.38;;;5.49;92.54
71966;BME280;59836;52.132;5.442;2023-01-31T09:21:07;102100.78;;;5.51;93.04
71966;BME280;59836;52.132;5.442;2023-01-31T09:23:34;102108.63;;;5.53;93.01
71966;BME280;59836;52.132;5.442;2023-01-31T09:26:02;102106.56;;;5.55;93.14
71966;BME280;59836;52.132;5.442;2023-01-31T09:28:29;102112.56;;;5.57;92.63
71966;BME280;59836;52.132;5.442;2023-01-31T09:31:05;102094.56;;;5.57;93.18
71966;BME280;59836;52.132;5.442;2023-01-31T09:33:32;102091.47;;;5.60;92.34
71966;BME280;59836;52.132;5.442;2023-01-31T09:36:02;102095.81;;;5.61;92.51
71966;BME280;59836;52.132;5.442;2023-01-31T09:38:29;102094.56;;;5.64;92.47
71966;BME280;59836;52.132;5.442;2023-01-31T09:40:58;102088.78;;;5.67;92.71
71966;BME280;59836;52.132;5.442;2023-01-31T09:43:30;102086.91;;;5.68;92.34
71966;BME280;59836;52.132;5.442;2023-01-31T09:46:01;102094.16;;;5.67;92.56
71966;BME280;59836;52.132;5.442;2023-01-31T09:48:33;102094.38;;;5.66;92.51
71966;BME280;59836;52.132;5.442;2023-01-31T09:51:02;102099.34;;;5.69;92.58
71966;BME280;59836;52.132;5.442;2023-01-31T09:53:32;102088.59;;;5.69;92.12
71966;BME280;59836;52.132;5.442;2023-01-31T09:58:39;102085.88;;;5.69;92.89
71966;BME280;59836;52.132;5.442;2023-01-31T10:01:39;102088.59;;;5.69;92.24
71966;BME280;59836;52.132;5.442;2023-01-31T10:06:49;102098.53;;;5.75;92.52
71966;BME280;59836;52.132;5.442;2023-01-31T10:09:28;102109.91;;;5.77;92.78
71966;BME280;59836;52.132;5.442;2023-01-31T10:12:03;102108.25;;;5.76;92.27
71966;BME280;59836;52.132;5.442;2023-01-31T10:14:50;102096.47;;;5.77;92.62
71966;BME280;59836;52.132;5.442;2023-01-31T10:17:29;102087.34;;;5.78;92.66
71966;BME280;59836;52.132;5.442;2023-01-31T10:20:07;102065.59;;;5.80;92.76
71966;BME280;59836;52.132;5.442;2023-01-31T10:22:55;102074.06;;;5.83;92.61
71966;BME280;59836;52.132;5.442;2023-01-31T10:25:29;102063.91;;;5.85;92.29
71966;BME280;59836;52.132;5.442;2023-01-31T10:28:05;102068.47;;;5.91;92.56
71966;BME280;59836;52.132;5.442;2023-01-31T10:30:42;102076.13;;;5.95;92.67
71966;BME280;59836;52.132;5.442;2023-01-31T10:36:00;102063.91;;;5.99;93.12
71966;BME280;59836;52.132;5.442;2023-01-31T10:38:31;102059.19;;;6.01;92.86
71966;BME280;59836;52.132;5.442;2023-01-31T10:41:11;102053.59;;;6.02;92.99
71966;BME280;59836;52.132;5.442;2023-01-31T10:43:58;102057.72;;;6.05;92.67
71966;BME280;59836;52.132;5.442;2023-01-31T10:46:25;102060.63;;;6.10;92.52
71966;BME280;59836;52.132;5.442;2023-01-31T10:48:52;102041.34;;;6.13;92.56
71966;BME280;59836;52.132;5.442;2023-01-31T10:52:00;102055.25;;;6.17;92.70
71966;BME280;59836;52.132;5.442;2023-01-31T10:54:45;102057.72;;;6.18;92.56
71966;BME280;59836;52.132;5.442;2023-01-31T10:57:15;102057.72;;;6.18;92.64
71966;BME280;59836;52.132;5.442;2023-01-31T10:59:45;102045.91;;;6.19;92.49
71966;BME280;59836;52.132;5.442;2023-01-31T11:02:24;102046.94;;;6.18;92.64
71966;BME280;59836;52.132;5.442;2023-01-31T11:04:53;102055.03;;;6.18;93.38
71966;BME280;59836;52.132;5.442;2023-01-31T11:07:21;102059.38;;;6.19;93.20
71966;BME280;59836;52.132;5.442;2023-01-31T11:09:54;102055.63;;;6.20;93.11
71966;BME280;59836;52.132;5.442;2023-01-31T11:12:21;102061.03;;;6.20;93.46
71966;BME280;59836;52.132;5.442;2023-01-31T11:17:59;102070.75;;;6.22;93.78
71966;BME280;59836;52.132;5.442;2023-01-31T11:20:29;102057.28;;;6.22;93.78
71966;BME280;59836;52.132;5.442;2023-01-31T11:22:58;102060.22;;;6.20;94.02
71966;BME280;59836;52.132;5.442;2023-01-31T11:25:26;102059.19;;;6.21;94.49
71966;BME280;59836;52.132;5.442;2023-01-31T11:27:59;102048.59;;;6.19;94.97
71966;BME280;59836;52.132;5.442;2023-01-31T11:30:28;102061.03;;;6.20;94.86
71966;BME280;59836;52.132;5.442;2023-01-31T11:32:57;102050.25;;;6.20;95.11
71966;BME280;59836;52.132;5.442;2023-01-31T11:35:28;102052.94;;;6.20;95.21
71966;BME280;59836;52.132;5.442;2023-01-31T11:37:58;102044.84;;;6.20;95.87
71966;BME280;59836;52.132;5.442;2023-01-31T11:40:35;102035.97;;;6.20;96.08
71966;BME280;59836;52.132;5.442;2023-01-31T11:43:23;102040.09;;;6.23;95.90
71966;BME280;59836;52.132;5.442;2023-01-31T11:45:55;102037.41;;;6.23;96.38
71966;BME280;59836;52.132;5.442;2023-01-31T11:48:29;102024.53;;;6.25;96.23
71966;BME280;59836;52.132;5.442;2023-01-31T11:51:01;102035.31;;;6.25;96.77
71966;BME280;59836;52.132;5.442;2023-01-31T11:53:37;102041.13;;;6.28;96.62
71966;BME280;59836;52.132;5.442;2023-01-31T11:56:30;102028.47;;;6.29;96.83
71966;BME280;59836;52.132;5.442;2023-01-31T11:59:04;102017.50;;;6.30;97.12
71966;BME280;59836;52.132;5.442;2023-01-31T12:01:35;102020.81;;;6.32;97.23
71966;BME280;59836;52.132;5.442;2023-01-31T12:04:15;102007.94;;;6.34;96.83
71966;BME280;59836;52.132;5.442;2023-01-31T12:07:01;102020.38;;;6.35;97.57
71966;BME280;59836;52.132;5.442;2023-01-31T12:09:38;102010.41;;;6.36;97.28
71966;BME280;59836;52.132;5.442;2023-01-31T12:12:21;102019.13;;;6.38;97.68
71966;BME280;59836;52.132;5.442;2023-01-31T12:14:48;102008.34;;;6.38;97.57
71966;BME280;59836;52.132;5.442;2023-01-31T12:17:16;102009.16;;;6.39;97.28
71966;BME280;59836;52.132;5.442;2023-01-31T12:20:02;102002.53;;;6.41;97.48
71966;BME280;59836;52.132;5.442;2023-01-31T12:23:31;102002.91;;;6.45;97.81
71966;BME280;59836;52.132;5.442;2023-01-31T12:26:08;102000.03;;;6.46;97.16
71966;BME280;59836;52.132;5.442;2023-01-31T12:28:44;101993.97;;;6.51;97.46
71966;BME280;59836;52.132;5.442;2023-01-31T12:39:53;101990.41;;;6.64;97.95
71966;BME280;59836;52.132;5.442;2023-01-31T12:42:53;101982.94;;;6.66;97.62
71966;BME280;59836;52.132;5.442;2023-01-31T12:53:41;101961.06;;;6.88;97.50
71966;BME280;59836;52.132;5.442;2023-01-31T12:59:21;101957.44;;;7.01;97.42
71966;BME280;59836;52.132;5.442;2023-01-31T13:01:56;101954.47;;;7.09;97.31
71966;BME280;59836;52.132;5.442;2023-01-31T13:06:59;101943.53;;;7.29;96.88
71966;BME280;59836;52.132;5.442;2023-01-31T13:09:33;101936.47;;;7.28;96.60
71966;BME280;59836;52.132;5.442;2023-01-31T13:12:20;101940.63;;;7.31;96.77
71966;BME280;59836;52.132;5.442;2023-01-31T13:14:55;101931.91;;;7.29;96.33
71966;BME280;59836;52.132;5.442;2023-01-31T13:17:26;101940.63;;;7.31;96.38
71966;BME280;59836;52.132;5.442;2023-01-31T13:19:57;101945.56;;;7.34;96.02
71966;BME280;59836;52.132;5.442;2023-01-31T13:22:42;101936.19;;;7.36;95.93
71966;BME280;59836;52.132;5.442;2023-01-31T13:25:36;101954.66;;;7.39;95.76
71966;BME280;59836;52.132;5.442;2023-01-31T13:28:11;101941.75;;;7.42;95.62
71966;BME280;59836;52.132;5.442;2023-01-31T13:30:44;101946.34;;;7.41;95.22
71966;BME280;59836;52.132;5.442;2023-01-31T13:33:25;101939.06;;;7.42;95.25
71966;BME280;59836;52.132;5.442;2023-01-31T13:36:02;101938.00;;;7.43;95.45
71966;BME280;59836;52.132;5.442;2023-01-31T13:38:42;101941.03;;;7.53;94.75
71966;BME280;59836;52.132;5.442;2023-01-31T13:41:30;101946.03;;;7.75;94.52
71966;BME280;59836;52.132;5.442;2023-01-31T13:43:57;101947.69;;;7.76;93.85
71966;BME280;59836;52.132;5.442;2023-01-31T13:49:30;101959.91;;;7.78;93.45
71966;BME280;59836;52.132;5.442;2023-01-31T13:52:01;101964.94;;;7.75;94.01
71966;BME280;59836;52.132;5.442;2023-01-31T13:54:39;101970.94;;;7.77;93.52
71966;BME280;59836;52.132;5.442;2023-01-31T13:57:23;101980.09;;;7.76;93.26
71966;BME280;59836;52.132;5.442;2023-01-31T14:00:00;101967.03;;;7.73;92.99
71966;BME280;59836;52.132;5.442;2023-01-31T14:02:29;101963.72;;;7.71;92.91
71966;BME280;59836;52.132;5.442;2023-01-31T14:05:48;101987.19;;;7.70;93.07
71966;BME280;59836;52.132;5.442;2023-01-31T14:10:59;102001.41;;;7.84;92.79
71966;BME280;59836;52.132;5.442;2023-01-31T14:15:59;102007.09;;;7.76;92.52
71966;BME280;59836;52.132;5.442;2023-01-31T14:18:42;102001.91;;;7.74;91.86
71966;BME280;59836;52.132;5.442;2023-01-31T14:24:02;102003.75;;;8.18;90.04
71966;BME280;59836;52.132;5.442;2023-01-31T14:29:19;102017.09;;;7.94;90.92
71966;BME280;59836;52.132;5.442;2023-01-31T14:31:47;102001.56;;;7.89;90.66
71966;BME280;59836;52.132;5.442;2023-01-31T14:34:17;102010.72;;;7.88;90.09
71966;BME280;59836;52.132;5.442;2023-01-31T14:37:04;102018.50;;;7.96;89.98
71966;BME280;59836;52.132;5.442;2023-01-31T14:45:42;102021.13;;;7.85;89.19